Lutcher, Louisiana
Current Conditions -  °F | °C
As of 11:35 AM on Thursday 23 Oct 2014 (Local Time) from K1L0 Reporting Station
Clear Clear  
Wind Chill: 57°   Ceiling: Unl
Heat Index: 57°   Visibility: 10mi
Dew Point: 36°   Wind: 8mph
Humidity: 45%   Direction: 50°NE
Pressure: 30.12"   Gusts: NA
Location:  30.04°N, 90.7°W
Report Text: K1L0 231635Z AUTO 05007KT 10SM CLR 14/02 A3012 RMK AO2 T01400021
Loading
Personal Weather Stations






























Interactive Weather Map
Tropical Storm Tracking
New forecast layout! Learn more

10-Day Weather Forecast

Advertisements
Track Severe Weather on mobile